Time;durP1;ratioP1;P1;durP2;ratioP2;P2;SDS_P1;SDS_P2;PMS_P1;PMS_P2;Temp;Humidity;BMP_temperature;BMP_pressure;BME280_temperature;BME280_humidity;BME280_pressure;Samples;Min_cycle;Max_cycle;Signal;HPM_P1;HPM_P2
2023/06/27 00:02:26;;;;;;;3.00;1.60;;;16.40;99.90;;;;;;5021367;28;20506;-76
2023/06/27 00:04:52;;;;;;;1.70;1.60;;;16.40;99.90;;;;;;5023615;28;20045;-76
2023/06/27 00:07:18;;;;;;;2.08;1.77;;;16.40;99.90;;;;;;5023476;28;20735;-76
2023/06/27 00:09:43;;;;;;;2.55;1.50;;;16.40;99.90;;;;;;5038371;28;20614;-76
2023/06/27 00:12:09;;;;;;;4.03;1.80;;;16.30;99.90;;;;;;5024949;28;20117;-76
2023/06/27 00:14:37;;;;;;;5.13;1.92;;;16.40;99.90;;;;;;5021717;28;20373;-76
2023/06/27 00:17:07;;;;;;;4.05;2.13;;;16.30;99.90;;;;;;5022530;28;20050;-76
2023/06/27 00:19:33;;;;;;;2.45;1.50;;;16.30;99.90;;;;;;5032708;28;20112;-76
2023/06/27 00:21:58;;;;;;;5.95;1.95;;;16.30;99.90;;;;;;5043477;28;20048;-76
2023/06/27 00:24:24;;;;;;;2.83;1.40;;;16.30;99.90;;;;;;5042926;28;20383;-76
2023/06/27 00:26:50;;;;;;;8.52;1.70;;;16.20;99.90;;;;;;5043189;28;20048;-76
2023/06/27 00:29:15;;;;;;;4.63;1.70;;;16.20;99.90;;;;;;5045603;28;20041;-76
2023/06/27 00:31:41;;;;;;;3.08;1.85;;;16.20;99.90;;;;;;5028461;28;20545;-76
2023/06/27 00:34:07;;;;;;;5.85;1.73;;;16.20;99.90;;;;;;5046831;28;20501;-76
2023/06/27 00:36:32;;;;;;;4.13;1.50;;;16.20;99.90;;;;;;5047189;28;20041;-76
2023/06/27 00:38:58;;;;;;;2.47;1.50;;;16.20;99.90;;;;;;5046860;28;20048;-76
2023/06/27 00:41:24;;;;;;;4.25;1.75;;;16.20;99.90;;;;;;5046673;28;20086;-76
2023/06/27 00:43:49;;;;;;;2.20;1.63;;;16.30;99.90;;;;;;5044493;28;20063;-76
2023/06/27 00:46:31;;;;;;;1.83;1.65;;;16.20;99.90;;;;;;5008579;28;20046;-76
2023/06/27 00:48:57;;;;;;;2.72;1.30;;;16.20;99.90;;;;;;5016994;28;20124;-76
2023/06/27 00:51:22;;;;;;;2.88;1.35;;;16.20;99.90;;;;;;5025273;28;20049;-76
2023/06/27 00:53:48;;;;;;;1.95;1.60;;;16.20;99.90;;;;;;5044756;28;20045;-76
2023/06/27 00:56:14;;;;;;;2.28;1.65;;;16.20;99.90;;;;;;5046222;28;20033;-76
2023/06/27 00:58:39;;;;;;;3.75;1.40;;;16.20;99.90;;;;;;5046738;28;20051;-76
2023/06/27 01:03:40;;;;;;;1.40;1.05;;;16.20;99.90;;;;;;4983950;28;20054;-76
2023/06/27 01:06:17;;;;;;;2.35;1.20;;;16.20;99.90;;;;;;4969288;28;20519;-76
2023/06/27 01:08:50;;;;;;;2.42;1.38;;;16.20;99.90;;;;;;4969866;28;20065;-76
2023/06/27 01:11:27;;;;;;;4.07;1.50;;;16.20;99.90;;;;;;4986966;28;20046;-76
2023/06/27 01:13:56;;;;;;;3.47;1.30;;;16.20;99.90;;;;;;4987265;28;20556;-76
2023/06/27 01:16:29;;;;;;;1.88;1.15;;;16.20;99.90;;;;;;4986135;28;20042;-76
2023/06/27 01:18:57;;;;;;;1.45;0.90;;;16.20;99.90;;;;;;4986139;28;20103;-76
2023/06/27 01:21:25;;;;;;;2.10;1.27;;;16.10;99.90;;;;;;4986476;28;20485;-76
2023/06/27 01:23:58;;;;;;;3.42;0.90;;;16.10;99.90;;;;;;4985898;28;20061;-76
2023/06/27 01:26:24;;;;;;;2.10;1.15;;;16.10;99.90;;;;;;4985640;28;20053;-76
2023/06/27 01:28:50;;;;;;;2.95;1.50;;;16.10;99.90;;;;;;4985468;28;20046;-76
2023/06/27 01:31:40;;;;;;;1.98;1.10;;;16.10;99.90;;;;;;4986574;28;20042;-76
2023/06/27 01:34:06;;;;;;;1.75;1.17;;;16.10;99.90;;;;;;4985426;28;20441;-76
2023/06/27 01:36:55;;;;;;;3.33;1.00;;;16.10;99.90;;;;;;4969089;28;20176;-76
2023/06/27 01:39:35;;;;;;;1.55;1.02;;;16.00;99.90;;;;;;4968333;28;20058;-76
2023/06/27 01:42:25;;;;;;;3.00;0.90;;;16.00;99.90;;;;;;4968711;28;20042;-76
2023/06/27 01:44:51;;;;;;;4.30;1.02;;;16.00;99.90;;;;;;4986015;28;20491;-76
2023/06/27 01:47:17;;;;;;;2.05;1.08;;;16.00;99.90;;;;;;4967643;28;20046;-76
2023/06/27 01:49:44;;;;;;;4.60;1.02;;;15.90;99.90;;;;;;4985423;28;20045;-76
2023/06/27 01:52:12;;;;;;;4.28;1.33;;;15.90;99.90;;;;;;4986345;28;20076;-76
2023/06/27 01:54:42;;;;;;;2.20;0.93;;;15.90;99.90;;;;;;4986433;28;20030;-76
2023/06/27 01:57:08;;;;;;;9.55;2.40;;;15.90;99.90;;;;;;4986366;28;20049;-76
2023/06/27 01:59:34;;;;;;;3.33;1.10;;;15.90;99.90;;;;;;4987071;28;20279;-76
2023/06/27 02:02:00;;;;;;;4.32;1.50;;;15.80;99.90;;;;;;4984774;28;20133;-76
2023/06/27 02:04:25;;;;;;;3.10;1.00;;;15.80;99.90;;;;;;4985483;28;20133;-76
2023/06/27 02:06:51;;;;;;;2.45;1.25;;;15.80;99.90;;;;;;4986231;28;20049;-76
2023/06/27 02:09:17;;;;;;;2.03;1.10;;;15.70;99.90;;;;;;4985748;28;20046;-76
2023/06/27 02:11:43;;;;;;;1.85;1.17;;;15.80;99.90;;;;;;4985097;28;20054;-76
2023/06/27 02:14:08;;;;;;;3.22;1.05;;;15.80;99.90;;;;;;4984936;28;20057;-76
2023/06/27 02:16:34;;;;;;;3.65;1.67;;;15.80;99.90;;;;;;4984930;28;20540;-76
2023/06/27 02:19:00;;;;;;;1.08;0.98;;;15.80;99.90;;;;;;4985655;28;20125;-76
2023/06/27 02:21:25;;;;;;;3.15;1.25;;;15.90;99.90;;;;;;4984808;28;20061;-75
2023/06/27 02:23:51;;;;;;;5.40;1.38;;;15.90;99.90;;;;;;4985634;28;20337;-76
2023/06/27 02:26:17;;;;;;;2.55;1.00;;;15.90;99.90;;;;;;4984594;28;20134;-76
2023/06/27 02:28:43;;;;;;;1.08;0.85;;;15.90;99.90;;;;;;4986043;28;20648;-76
2023/06/27 02:31:09;;;;;;;1.25;1.00;;;16.00;99.90;;;;;;4983327;28;20030;-77
2023/06/27 02:33:34;;;;;;;2.35;1.23;;;16.00;99.90;;;;;;4985389;28;20053;-76
2023/06/27 02:36:00;;;;;;;2.17;1.00;;;16.00;99.90;;;;;;4985333;28;20497;-76
2023/06/27 02:38:26;;;;;;;1.67;0.98;;;16.00;99.90;;;;;;4985880;28;20045;-76
2023/06/27 02:40:52;;;;;;;7.28;1.33;;;16.00;99.90;;;;;;4984559;28;20707;-76
2023/06/27 02:43:18;;;;;;;1.83;1.20;;;16.00;99.90;;;;;;4985394;28;20459;-76
2023/06/27 02:45:44;;;;;;;2.88;0.85;;;16.10;99.90;;;;;;4985209;28;20142;-75
2023/06/27 02:48:09;;;;;;;3.60;1.23;;;16.10;99.90;;;;;;4983970;28;20049;-76
2023/06/27 02:50:35;;;;;;;1.45;1.35;;;16.10;99.90;;;;;;4983594;28;20046;-76
2023/06/27 02:53:00;;;;;;;3.08;0.98;;;16.10;99.90;;;;;;4984721;28;20046;-76
2023/06/27 02:55:26;;;;;;;1.58;1.00;;;16.10;99.90;;;;;;4984404;28;20045;-75
2023/06/27 02:57:51;;;;;;;3.30;1.20;;;16.10;99.90;;;;;;4984206;28;20133;-76
2023/06/27 03:00:17;;;;;;;0.98;0.93;;;16.10;99.90;;;;;;4985244;28;20370;-76
2023/06/27 03:02:43;;;;;;;1.70;0.93;;;16.10;99.90;;;;;;4983525;28;20132;-75
2023/06/27 03:05:09;;;;;;;2.22;1.02;;;16.10;99.90;;;;;;4984784;28;20540;-76
2023/06/27 03:07:34;;;;;;;6.00;1.20;;;16.10;99.90;;;;;;4985325;28;20046;-76
2023/06/27 03:10:00;;;;;;;4.03;2.35;;;16.10;99.90;;;;;;4985120;28;20046;-76
2023/06/27 03:12:25;;;;;;;3.13;1.10;;;16.10;99.90;;;;;;4984198;28;20053;-75
2023/06/27 03:14:51;;;;;;;1.05;1.00;;;16.10;99.90;;;;;;4983654;28;20054;-76
2023/06/27 03:17:17;;;;;;;3.53;1.23;;;16.10;99.90;;;;;;4982726;28;20057;-76
2023/06/27 03:19:42;;;;;;;2.22;1.08;;;16.10;99.90;;;;;;4984697;28;20046;-76
2023/06/27 03:22:08;;;;;;;1.27;1.00;;;16.10;99.90;;;;;;4984526;28;20068;-76
2023/06/27 03:24:33;;;;;;;1.20;1.08;;;16.00;99.90;;;;;;4984995;28;20136;-75
2023/06/27 03:26:59;;;;;;;8.07;1.30;;;16.10;99.90;;;;;;4983489;28;20041;-76
2023/06/27 03:29:25;;;;;;;2.55;1.05;;;16.00;99.90;;;;;;4985463;28;20050;-76
2023/06/27 03:31:50;;;;;;;4.68;1.23;;;16.10;99.90;;;;;;4982992;28;20050;-76
2023/06/27 03:34:16;;;;;;;3.17;1.52;;;16.10;99.90;;;;;;4984383;28;20045;-76
2023/06/27 03:36:42;;;;;;;1.27;0.98;;;16.00;99.90;;;;;;4983341;28;20172;-76
2023/06/27 03:39:07;;;;;;;5.82;1.58;;;16.00;99.90;;;;;;4984599;28;20053;-76
2023/06/27 03:41:33;;;;;;;2.08;1.35;;;16.00;99.90;;;;;;4983762;28;20374;-76
2023/06/27 03:43:59;;;;;;;5.65;1.40;;;16.00;99.90;;;;;;4983596;28;20046;-76
2023/06/27 03:46:24;;;;;;;3.03;1.02;;;16.00;99.90;;;;;;4983899;28;20137;-76
2023/06/27 03:48:54;;;;;;;5.68;1.50;;;16.00;99.90;;;;;;4984714;28;20062;-76
2023/06/27 03:51:20;;;;;;;5.13;1.40;;;16.00;99.90;;;;;;4982473;28;20046;-76
2023/06/27 03:53:45;;;;;;;5.30;1.33;;;16.00;99.90;;;;;;4984582;28;20054;-75
2023/06/27 03:56:11;;;;;;;2.72;1.33;;;16.00;99.90;;;;;;4982985;28;20050;-76
2023/06/27 03:58:36;;;;;;;2.33;1.50;;;16.00;99.90;;;;;;4984243;28;20056;-76
2023/06/27 04:01:03;;;;;;;1.75;1.25;;;16.00;99.90;;;;;;4983540;28;20432;-76
2023/06/27 04:03:28;;;;;;;3.15;1.17;;;16.00;99.90;;;;;;4986643;28;20050;-76
2023/06/27 04:05:54;;;;;;;4.82;1.30;;;16.00;99.90;;;;;;4986850;28;20050;-76
2023/06/27 04:08:20;;;;;;;1.85;1.20;;;16.00;99.90;;;;;;4988344;28;20500;-76
2023/06/27 04:10:45;;;;;;;4.30;0.98;;;16.00;99.90;;;;;;4988387;28;20161;-75
2023/06/27 04:13:11;;;;;;;1.42;0.98;;;16.00;99.90;;;;;;4986528;28;20385;-76
2023/06/27 04:15:39;;;;;;;2.85;1.30;;;16.00;99.90;;;;;;4988329;28;20078;-76
2023/06/27 04:18:07;;;;;;;5.00;1.38;;;16.00;99.90;;;;;;4987168;28;20053;-76
2023/06/27 04:20:33;;;;;;;2.13;1.13;;;16.00;99.90;;;;;;4987599;28;20093;-76
2023/06/27 04:22:59;;;;;;;3.53;1.00;;;16.00;99.90;;;;;;4970555;28;20069;-76
2023/06/27 04:25:31;;;;;;;2.42;1.00;;;16.10;99.90;;;;;;4988715;28;20077;-76
2023/06/27 04:27:56;;;;;;;4.10;1.23;;;16.10;99.90;;;;;;4986755;28;20548;-75
2023/06/27 04:30:22;;;;;;;4.57;1.85;;;16.10;99.90;;;;;;4988008;28;20134;-76
2023/06/27 04:32:50;;;;;;;3.22;1.65;;;16.10;99.90;;;;;;4969491;28;20117;-75
2023/06/27 04:35:19;;;;;;;3.40;1.38;;;16.20;99.90;;;;;;4987189;28;20089;-76
2023/06/27 04:37:51;;;;;;;3.85;1.30;;;16.20;99.90;;;;;;4986382;28;20058;-76
2023/06/27 04:40:17;;;;;;;4.47;0.77;;;16.30;99.90;;;;;;4985781;28;20070;-79
2023/06/27 04:42:43;;;;;;;2.25;1.00;;;16.30;99.90;;;;;;4969694;28;20496;-78
2023/06/27 04:45:09;;;;;;;2.97;1.13;;;16.30;99.90;;;;;;4987153;28;20093;-76
2023/06/27 04:47:37;;;;;;;2.08;1.13;;;16.40;99.90;;;;;;4985324;28;20053;-76
2023/06/27 04:50:06;;;;;;;2.35;0.82;;;16.40;99.90;;;;;;4985201;28;20042;-76
2023/06/27 04:52:32;;;;;;;2.60;0.88;;;16.50;99.90;;;;;;4985817;28;20038;-76
2023/06/27 04:54:58;;;;;;;2.88;1.10;;;16.50;99.90;;;;;;4986290;28;20472;-76
2023/06/27 04:57:24;;;;;;;6.68;0.98;;;16.50;99.90;;;;;;4985787;28;20046;-76
2023/06/27 04:59:49;;;;;;;0.80;0.80;;;16.60;99.90;;;;;;4987685;28;20095;-76
2023/06/27 05:02:15;;;;;;;0.77;0.77;;;16.60;99.90;;;;;;4984638;28;20051;-76
2023/06/27 05:04:41;;;;;;;3.33;1.15;;;16.60;99.90;;;;;;4969605;28;20054;-76
2023/06/27 05:07:06;;;;;;;2.67;1.13;;;16.70;99.90;;;;;;4985830;28;20051;-76
2023/06/27 05:09:32;;;;;;;6.18;1.00;;;16.70;99.90;;;;;;4986896;28;20603;-78
2023/06/27 05:11:58;;;;;;;2.65;0.68;;;16.80;99.90;;;;;;4987788;28;20073;-76
2023/06/27 05:14:23;;;;;;;1.60;0.82;;;16.80;99.90;;;;;;4984929;28;20094;-77
2023/06/27 05:16:49;;;;;;;4.35;1.08;;;16.80;99.90;;;;;;4968664;28;20280;-77
2023/06/27 05:19:15;;;;;;;8.25;1.48;;;16.90;99.90;;;;;;4985475;28;20038;-76
2023/06/27 05:21:40;;;;;;;2.00;1.10;;;16.90;99.90;;;;;;4984895;28;20563;-81
2023/06/27 05:24:06;;;;;;;1.00;0.90;;;17.00;99.90;;;;;;4968620;28;20081;-80
2023/06/27 05:26:33;;;;;;;2.58;0.70;;;17.00;99.90;;;;;;4985513;28;20412;-79
2023/06/27 05:28:59;;;;;;;1.33;0.80;;;17.00;99.90;;;;;;4985316;28;20050;-79
2023/06/27 05:31:26;;;;;;;2.80;0.90;;;17.10;99.90;;;;;;4984368;28;20117;-79
2023/06/27 05:33:52;;;;;;;3.13;0.63;;;17.10;99.90;;;;;;4986314;28;20053;-79
2023/06/27 05:36:18;;;;;;;3.40;1.08;;;17.20;99.90;;;;;;4984825;28;20424;-78
2023/06/27 05:38:43;;;;;;;0.65;0.50;;;17.20;99.90;;;;;;4985032;28;20062;-81
2023/06/27 05:41:09;;;;;;;2.33;0.80;;;17.30;99.90;;;;;;4986252;28;20073;-80
2023/06/27 05:43:35;;;;;;;1.95;0.70;;;17.30;99.90;;;;;;4985254;28;20042;-80
2023/06/27 05:46:01;;;;;;;2.10;0.85;;;17.40;99.90;;;;;;4982758;28;20386;-79
2023/06/27 05:48:26;;;;;;;1.48;1.25;;;17.40;99.90;;;;;;4984746;28;20034;-77
2023/06/27 05:50:52;;;;;;;3.42;0.60;;;17.40;99.90;;;;;;4968098;28;20046;-78
2023/06/27 05:53:18;;;;;;;2.83;0.95;;;17.50;99.90;;;;;;4984030;28;20070;-77
2023/06/27 05:55:43;;;;;;;3.20;1.63;;;17.50;99.90;;;;;;4984603;28;20396;-77
2023/06/27 05:58:09;;;;;;;1.08;0.80;;;17.60;99.90;;;;;;4985665;28;20035;-75
2023/06/27 06:00:34;;;;;;;3.38;0.70;;;17.60;99.90;;;;;;4984919;28;20046;-76
2023/06/27 06:03:00;;;;;;;3.10;0.70;;;17.70;99.90;;;;;;4984550;28;20523;-76
2023/06/27 06:05:26;;;;;;;2.70;0.80;;;17.70;99.90;;;;;;4985756;28;20042;-75
2023/06/27 06:07:51;;;;;;;2.95;1.30;;;17.80;99.90;;;;;;4984141;28;20380;-78
2023/06/27 06:10:18;;;;;;;2.40;0.80;;;17.80;99.90;;;;;;4984042;28;20053;-77
2023/06/27 06:12:44;;;;;;;7.40;1.52;;;17.90;99.90;;;;;;4983653;28;20057;-74
2023/06/27 06:15:09;;;;;;;2.40;0.98;;;17.90;99.90;;;;;;4983841;28;20043;-74
2023/06/27 06:17:35;;;;;;;2.17;0.95;;;18.00;99.90;;;;;;4983912;28;20066;-74
2023/06/27 06:20:03;;;;;;;2.60;0.75;;;18.10;99.90;;;;;;4982103;28;20137;-74
2023/06/27 06:22:29;;;;;;;4.93;1.95;;;18.20;99.90;;;;;;4985018;28;20061;-74
2023/06/27 06:24:55;;;;;;;1.70;0.40;;;18.20;99.90;;;;;;4983510;28;20489;-74
2023/06/27 06:27:21;;;;;;;2.85;0.73;;;18.30;99.90;;;;;;4982827;28;20053;-76
2023/06/27 06:29:46;;;;;;;0.55;0.52;;;18.40;99.90;;;;;;4984808;28;20061;-74
2023/06/27 06:32:12;;;;;;;4.28;1.27;;;18.40;99.90;;;;;;4982229;28;20508;-74
2023/06/27 06:34:37;;;;;;;0.70;0.55;;;18.50;99.90;;;;;;4982476;28;20038;-74
2023/06/27 06:37:03;;;;;;;2.35;0.57;;;18.60;99.90;;;;;;4984813;28;20054;-75
2023/06/27 06:39:29;;;;;;;3.10;0.88;;;18.60;99.90;;;;;;4967387;28;20046;-74
2023/06/27 06:41:55;;;;;;;1.40;0.60;;;18.60;99.90;;;;;;4983169;28;20054;-74
2023/06/27 06:44:21;;;;;;;2.03;0.55;;;18.70;99.90;;;;;;4983446;28;20054;-75
2023/06/27 06:46:46;;;;;;;2.90;0.52;;;18.70;99.90;;;;;;4982216;28;20054;-74
2023/06/27 06:49:12;;;;;;;0.50;0.50;;;18.70;99.90;;;;;;4984093;28;20053;-74
2023/06/27 06:51:37;;;;;;;5.80;1.33;;;18.70;99.90;;;;;;4982264;28;20035;-74
2023/06/27 06:54:03;;;;;;;1.50;0.60;;;18.80;99.90;;;;;;4983841;28;20050;-75
2023/06/27 06:56:29;;;;;;;3.08;0.70;;;18.80;99.90;;;;;;4984029;28;20089;-74
2023/06/27 06:58:54;;;;;;;3.28;0.60;;;18.90;99.90;;;;;;4983931;28;20054;-75
2023/06/27 07:01:20;;;;;;;4.63;0.77;;;18.90;99.90;;;;;;4981168;28;20552;-74
2023/06/27 07:03:46;;;;;;;2.42;0.52;;;19.00;99.90;;;;;;4984034;28;20061;-74
2023/06/27 07:06:11;;;;;;;5.22;0.93;;;19.00;99.90;;;;;;4983408;28;20038;-75
2023/06/27 07:08:38;;;;;;;3.35;0.50;;;19.00;99.90;;;;;;4983850;28;20042;-74
2023/06/27 07:11:04;;;;;;;1.73;0.73;;;19.00;99.90;;;;;;4982126;28;20053;-74
2023/06/27 07:13:29;;;;;;;0.55;0.40;;;19.10;99.90;;;;;;4982115;28;20026;-75
2023/06/27 07:15:55;;;;;;;2.10;0.50;;;19.10;99.90;;;;;;4983119;28;20046;-74
2023/06/27 07:18:21;;;;;;;3.78;0.80;;;19.10;99.90;;;;;;4983645;28;20140;-74
2023/06/27 07:20:46;;;;;;;0.68;0.50;;;19.10;99.90;;;;;;4981879;28;20500;-75
2023/06/27 07:23:12;;;;;;;1.27;0.60;;;19.10;99.90;;;;;;4983556;28;20046;-74
2023/06/27 07:25:38;;;;;;;2.63;0.90;;;19.00;99.90;;;;;;4982188;28;20516;-73
2023/06/27 07:28:05;;;;;;;1.00;0.50;;;19.00;99.90;;;;;;4982743;28;20038;-75
2023/06/27 07:30:30;;;;;;;1.17;0.90;;;19.00;99.90;;;;;;4980968;28;20057;-75
2023/06/27 07:32:56;;;;;;;3.70;0.60;;;19.10;99.90;;;;;;4983904;28;20046;-74
2023/06/27 07:35:22;;;;;;;2.83;0.77;;;19.10;99.90;;;;;;4981573;28;20130;-75
2023/06/27 07:37:47;;;;;;;4.20;1.23;;;19.10;99.90;;;;;;4983174;28;20319;-74
2023/06/27 07:40:13;;;;;;;1.23;0.82;;;19.20;99.90;;;;;;4981792;28;20089;-74
2023/06/27 07:42:38;;;;;;;1.40;0.60;;;19.20;99.90;;;;;;4983042;28;20050;-74
2023/06/27 07:45:05;;;;;;;2.65;0.50;;;19.20;99.90;;;;;;4983268;28;20053;-74
2023/06/27 07:47:30;;;;;;;3.45;0.65;;;19.20;99.90;;;;;;4982377;28;20042;-75
2023/06/27 07:49:56;;;;;;;3.60;0.70;;;19.20;99.90;;;;;;4983226;28;20038;-75
2023/06/27 07:52:21;;;;;;;3.50;0.55;;;19.30;99.90;;;;;;4982467;28;20042;-74
2023/06/27 07:54:47;;;;;;;2.53;0.70;;;19.30;99.90;;;;;;4982940;28;20329;-75
2023/06/27 07:57:13;;;;;;;1.38;0.45;;;19.30;99.90;;;;;;4982701;28;20045;-75
2023/06/27 07:59:38;;;;;;;2.28;1.00;;;19.30;99.90;;;;;;4982416;28;20042;-74
2023/06/27 08:02:04;;;;;;;5.53;0.60;;;19.30;99.90;;;;;;4980262;28;20058;-74
2023/06/27 08:04:31;;;;;;;0.90;0.50;;;19.40;99.90;;;;;;4981377;28;20065;-76
2023/06/27 08:06:56;;;;;;;2.33;0.77;;;19.40;99.90;;;;;;4983384;28;20113;-74
2023/06/27 08:09:22;;;;;;;0.75;0.50;;;19.40;99.90;;;;;;4982689;28;20141;-74
2023/06/27 08:11:48;;;;;;;1.33;0.50;;;19.40;99.90;;;;;;4982677;28;20528;-75
2023/06/27 08:14:13;;;;;;;1.58;0.50;;;19.50;99.90;;;;;;4981443;28;20043;-75
2023/06/27 08:16:39;;;;;;;0.77;0.30;;;19.50;99.90;;;;;;4982268;28;20393;-74
2023/06/27 08:19:05;;;;;;;1.83;0.50;;;19.50;99.90;;;;;;4982943;28;20069;-75
2023/06/27 08:21:31;;;;;;;2.22;0.82;;;19.60;99.90;;;;;;4981847;28;20404;-75
2023/06/27 08:23:56;;;;;;;1.48;0.52;;;19.60;99.90;;;;;;4983401;28;20093;-75
2023/06/27 08:26:22;;;;;;;2.20;0.60;;;19.70;99.90;;;;;;4982162;28;20081;-74
2023/06/27 08:28:47;;;;;;;1.13;0.95;;;19.70;99.90;;;;;;4981262;28;20039;-74
2023/06/27 08:31:13;;;;;;;1.85;0.70;;;19.70;99.90;;;;;;4982522;28;20035;-75
2023/06/27 08:33:39;;;;;;;0.68;0.60;;;19.80;99.90;;;;;;4982975;28;20049;-74
2023/06/27 08:36:06;;;;;;;0.95;0.63;;;19.80;99.90;;;;;;4982010;28;20038;-74
2023/06/27 08:38:31;;;;;;;3.55;1.02;;;19.80;99.90;;;;;;4965788;28;20113;-76
2023/06/27 08:40:57;;;;;;;2.22;0.55;;;19.80;99.90;;;;;;4981583;28;20201;-72
2023/06/27 08:43:24;;;;;;;1.08;0.65;;;19.80;99.90;;;;;;4981378;28;20043;-71
2023/06/27 08:45:52;;;;;;;1.00;0.63;;;19.80;99.90;;;;;;4982091;28;20047;-72
2023/06/27 08:48:18;;;;;;;4.47;1.00;;;19.90;99.90;;;;;;4982635;28;20118;-72
2023/06/27 08:50:44;;;;;;;2.85;0.45;;;19.90;99.90;;;;;;4968305;28;20125;-73
2023/06/27 08:53:17;;;;;;;0.50;0.50;;;19.90;99.90;;;;;;4986154;28;20222;-72
2023/06/27 08:56:01;;;;;;;1.60;0.50;;;19.90;99.90;;;;;;4984598;28;20054;-72
2023/06/27 08:58:40;;;;;;;1.95;0.50;;;19.90;99.90;;;;;;4985385;28;20054;-72
2023/06/27 09:01:07;;;;;;;1.95;0.70;;;20.00;99.90;;;;;;4983462;28;20104;-73
2023/06/27 09:03:34;;;;;;;1.75;0.68;;;20.00;99.90;;;;;;4986669;28;20054;-74
2023/06/27 09:06:03;;;;;;;1.80;0.60;;;20.00;99.90;;;;;;4984669;28;20093;-74
2023/06/27 09:08:29;;;;;;;6.03;0.68;;;20.00;99.90;;;;;;4984886;28;20057;-74
2023/06/27 09:10:55;;;;;;;1.08;0.63;;;20.00;99.90;;;;;;4986399;28;20117;-74
2023/06/27 09:13:21;;;;;;;2.17;0.52;;;20.00;99.90;;;;;;4985919;28;20046;-71
2023/06/27 09:15:47;;;;;;;1.42;0.57;;;20.00;99.90;;;;;;4983300;28;20042;-74
2023/06/27 09:18:13;;;;;;;2.38;0.80;;;20.10;99.90;;;;;;4983992;28;20054;-73
2023/06/27 09:20:39;;;;;;;2.50;0.90;;;20.10;99.90;;;;;;4985847;28;20069;-72
2023/06/27 09:23:05;;;;;;;1.75;0.40;;;20.10;99.90;;;;;;4985824;28;20488;-72
2023/06/27 09:25:31;;;;;;;5.68;0.70;;;20.20;99.90;;;;;;4984359;28;20338;-73
2023/06/27 09:27:58;;;;;;;1.17;0.50;;;20.20;99.90;;;;;;4986518;28;20416;-74
2023/06/27 09:30:24;;;;;;;2.88;0.75;;;20.20;99.90;;;;;;4984624;28;20445;-72
2023/06/27 09:32:58;;;;;;;1.52;0.73;;;20.20;99.90;;;;;;4986092;28;20069;-72
2023/06/27 09:35:25;;;;;;;2.60;0.65;;;20.30;99.90;;;;;;4985346;28;20073;-72
2023/06/27 09:37:51;;;;;;;0.32;0.32;;;20.30;99.90;;;;;;4985448;28;20046;-73
2023/06/27 09:40:25;;;;;;;0.50;0.50;;;20.30;99.90;;;;;;4984895;28;20149;-74
2023/06/27 09:42:51;;;;;;;1.30;0.50;;;20.30;99.90;;;;;;4985857;28;20057;-72
2023/06/27 09:45:17;;;;;;;1.48;0.60;;;20.30;99.90;;;;;;4983192;28;20046;-72
2023/06/27 09:47:43;;;;;;;2.60;1.20;;;20.30;99.90;;;;;;4968303;28;20418;-72
2023/06/27 09:50:09;;;;;;;0.50;0.40;;;20.30;99.90;;;;;;4985613;28;20289;-73
2023/06/27 09:52:35;;;;;;;1.35;0.50;;;20.40;99.90;;;;;;4985599;28;20046;-73
2023/06/27 09:55:00;;;;;;;0.70;0.50;;;20.50;99.90;;;;;;4984004;28;20049;-73
2023/06/27 09:57:29;;;;;;;1.63;0.77;;;20.50;99.90;;;;;;4985773;28;20046;-72
2023/06/27 09:59:58;;;;;;;2.63;0.50;;;20.50;99.90;;;;;;4984989;28;20543;-74
2023/06/27 10:02:29;;;;;;;0.77;0.30;;;20.50;99.90;;;;;;4984432;28;20085;-73
2023/06/27 10:04:54;;;;;;;1.85;0.60;;;20.50;99.50;;;;;;4966636;28;20086;-74
2023/06/27 10:07:20;;;;;;;3.22;1.23;;;20.60;99.90;;;;;;4948866;28;20046;-74
2023/06/27 10:09:46;;;;;;;0.90;0.52;;;20.70;99.90;;;;;;4962993;28;20046;-73
2023/06/27 10:12:14;;;;;;;1.60;0.50;;;20.70;99.70;;;;;;4983165;28;20050;-74
2023/06/27 10:14:39;;;;;;;4.63;0.90;;;20.70;99.60;;;;;;4984325;28;20390;-76
2023/06/27 10:17:05;;;;;;;3.78;0.45;;;20.70;99.40;;;;;;4983922;28;20043;-77
2023/06/27 10:19:32;;;;;;;2.20;0.43;;;20.70;99.60;;;;;;4984942;28;20241;-77
2023/06/27 10:22:01;;;;;;;3.65;0.60;;;20.70;99.50;;;;;;4967796;28;20114;-77
2023/06/27 10:24:29;;;;;;;2.03;0.60;;;20.70;99.10;;;;;;4967181;28;20133;-76
2023/06/27 10:27:01;;;;;;;3.67;1.10;;;20.80;99.40;;;;;;4984746;28;20035;-78
2023/06/27 10:29:32;;;;;;;4.43;0.60;;;20.70;98.80;;;;;;4985163;28;20053;-82
2023/06/27 10:31:59;;;;;;;1.30;0.70;;;20.80;98.50;;;;;;4984524;28;20050;-82
2023/06/27 10:34:24;;;;;;;1.25;0.50;;;20.80;99.00;;;;;;4983065;28;20042;-79
2023/06/27 10:36:50;;;;;;;2.35;0.47;;;20.80;99.10;;;;;;4985007;28;20066;-84
2023/06/27 10:39:29;;;;;;;6.18;0.82;;;20.90;99.10;;;;;;4983024;28;20046;-81
2023/06/27 10:41:59;;;;;;;2.42;0.68;;;20.90;97.60;;;;;;4984241;28;20149;-75
2023/06/27 10:44:25;;;;;;;3.60;0.77;;;21.00;98.70;;;;;;4984235;28;20085;-79
2023/06/27 10:47:17;;;;;;;1.30;0.70;;;21.00;98.90;;;;;;4982278;28;20124;-77
2023/06/27 10:49:47;;;;;;;3.13;0.50;;;21.00;96.70;;;;;;4976425;28;20046;-82
2023/06/27 10:52:23;;;;;;;0.98;0.40;;;21.00;98.50;;;;;;4984123;28;20038;-82
2023/06/27 10:55:14;;;;;;;1.45;0.60;;;21.10;96.50;;;;;;4981991;28;20030;-75
2023/06/27 10:57:43;;;;;;;0.50;0.22;;;21.10;95.50;;;;;;4982873;28;20054;-73
2023/06/27 11:00:15;;;;;;;1.65;0.70;;;21.10;98.40;;;;;;4983316;28;20125;-80
2023/06/27 11:02:42;;;;;;;3.17;0.75;;;21.10;97.50;;;;;;4982951;28;20118;-75
2023/06/27 11:05:15;;;;;;;1.75;0.70;;;21.10;98.00;;;;;;4983755;28;20084;-74
2023/06/27 11:07:54;;;;;;;1.70;0.63;;;21.00;97.00;;;;;;4984336;28;20440;-74
2023/06/27 11:10:29;;;;;;;0.85;0.50;;;21.00;97.20;;;;;;4983756;28;20053;-72
2023/06/27 11:13:27;;;;;;;2.40;0.65;;;21.00;97.80;;;;;;4981594;28;20293;-74
2023/06/27 11:15:55;;;;;;;0.50;0.50;;;21.00;95.30;;;;;;4957102;28;20050;-74
2023/06/27 11:18:25;;;;;;;2.08;0.60;;;21.00;98.00;;;;;;4982695;28;20125;-74
2023/06/27 11:20:50;;;;;;;2.17;0.50;;;21.00;98.10;;;;;;4983606;28;20117;-74
2023/06/27 11:23:17;;;;;;;2.50;0.77;;;21.00;98.00;;;;;;4982069;28;20034;-73
2023/06/27 11:25:45;;;;;;;0.63;0.50;;;21.00;97.50;;;;;;4985641;28;20081;-73
2023/06/27 11:28:17;;;;;;;0.52;0.40;;;21.00;97.40;;;;;;4984101;28;20129;-76
2023/06/27 11:30:43;;;;;;;;;;;21.00;96.60;;;;;;4981203;28;20057;-74
2023/06/27 11:33:09;;;;;;;1.45;0.60;;;20.90;91.80;;;;;;4982611;28;19921;-78
2023/06/27 11:35:35;;;;;;;0.85;0.50;;;21.00;97.00;;;;;;4983910;28;20130;-73
2023/06/27 11:38:05;;;;;;;2.15;1.45;;;21.10;96.90;;;;;;4982194;28;20045;-73
2023/06/27 11:40:30;;;;;;;1.98;0.73;;;21.10;95.20;;;;;;4983143;28;20046;-74
2023/06/27 11:43:04;;;;;;;1.23;0.60;;;21.10;96.50;;;;;;4983631;28;20034;-73
2023/06/27 11:45:31;;;;;;;0.40;0.40;;;21.10;94.80;;;;;;4982410;28;20433;-75
2023/06/27 11:47:58;;;;;;;2.10;0.57;;;21.10;96.50;;;;;;4983465;28;20386;-73
2023/06/27 11:50:24;;;;;;;1.77;0.43;;;21.20;96.40;;;;;;4981694;28;20400;-73
2023/06/27 11:52:52;;;;;;;7.88;0.63;;;21.20;96.60;;;;;;4983715;28;20887;-73
2023/06/27 11:55:17;;;;;;;0.77;0.50;;;21.20;96.40;;;;;;4981880;28;20078;-73
2023/06/27 11:57:47;;;;;;;1.90;1.00;;;21.30;96.30;;;;;;4981772;28;20081;-73
2023/06/27 12:00:24;;;;;;;0.50;0.45;;;21.20;94.80;;;;;;4980955;28;20080;-74
2023/06/27 12:02:55;;;;;;;0.32;0.30;;;21.20;93.80;;;;;;4982879;28;20484;-72
2023/06/27 12:05:23;;;;;;;0.70;0.57;;;21.20;95.30;;;;;;4981762;28;20081;-73
2023/06/27 12:07:54;;;;;;;1.98;0.60;;;21.10;95.80;;;;;;4982871;28;20571;-73
2023/06/27 12:10:20;;;;;;;1.50;0.55;;;21.10;95.80;;;;;;4982930;28;20417;-73
2023/06/27 12:12:46;;;;;;;7.25;0.70;;;21.20;96.40;;;;;;4983089;28;20047;-73
2023/06/27 12:15:14;;;;;;;5.25;1.60;;;21.30;96.30;;;;;;4964087;28;20042;-73
2023/06/27 12:17:57;;;;;;;2.63;0.88;;;21.20;96.20;;;;;;4984930;28;20117;-73
2023/06/27 12:20:23;;;;;;;0.70;0.60;;;21.10;93.40;;;;;;4978407;28;20042;-73
2023/06/27 12:22:49;;;;;;;0.95;0.70;;;21.10;96.10;;;;;;4982164;28;20109;-74
2023/06/27 12:25:15;;;;;;;1.92;0.63;;;21.10;95.70;;;;;;4984855;28;20096;-74
2023/06/27 12:27:40;;;;;;;12.32;0.80;;;21.00;95.90;;;;;;4986904;28;20041;-74
2023/06/27 12:30:09;;;;;;;1.30;0.70;;;21.00;95.90;;;;;;4985160;28;20038;-74
2023/06/27 12:32:35;;;;;;;1.05;0.63;;;21.00;96.00;;;;;;4987138;28;20074;-74
2023/06/27 12:35:00;;;;;;;2.58;0.80;;;21.00;95.80;;;;;;4985153;28;20085;-75
2023/06/27 12:37:28;;;;;;;3.33;0.70;;;21.00;95.70;;;;;;4987633;28;20089;-82
2023/06/27 12:39:54;;;;;;;1.05;0.47;;;21.10;96.00;;;;;;4986927;28;20050;-74
2023/06/27 12:42:19;;;;;;;1.60;0.50;;;21.20;95.70;;;;;;4986234;28;20752;-74
2023/06/27 12:44:45;;;;;;;1.25;0.60;;;21.30;95.60;;;;;;4984525;28;20050;-74
2023/06/27 12:47:11;;;;;;;1.67;0.57;;;21.30;95.10;;;;;;4987048;28;20046;-74
2023/06/27 12:49:37;;;;;;;0.70;0.60;;;21.30;94.80;;;;;;4987167;28;20046;-73
2023/06/27 12:52:03;;;;;;;4.55;0.85;;;21.20;94.70;;;;;;4986570;28;20103;-74